• Join FlightAware (Why Join?)
  • Login
  • US Flag 
11:23AM EDT


 

Airport Tracker/Info


-or-


 

Live Flight TrackerFlight Track Log ✈ AAL297 ✈ 06-May-2013 ✈ KLAX - PHNL

Flight Track Log - Related Links

Times and Time Zones

All times are in EDT time to prevent confusion due to time zone crossing. See the AAL297 flight status page for this flight to view local times or setup timezone preferences in your user account.

Time Position Orientation Groundspeed Altitude Reporting Facility
EDT Latitude Longitude Course Direction KTS MPH feet Rate Location/Type
07:36PM 33.9310 -118.4680 263° West 212 244 2,200  Level FlightAware
07:37PM 33.9270 -118.5150 264° West 253 291 3,300 2,160 Climbing FlightAware
07:37PM 33.9240 -118.5480 264° West 260 299 4,400 2,820 Climbing FlightAware
07:38PM 33.9210 -118.5900 265° West 268 308 5,900 3,000 Climbing FlightAware
07:38PM 33.9180 -118.6390 266° West 277 319 7,400 3,120 Climbing FlightAware
07:39PM 33.9140 -118.6770 263° West 275 316 8,800 2,700 Climbing FlightAware
07:40PM 33.9090 -118.7480 265° West 299 344 10,600 1,860 Climbing FlightAware
07:40PM 33.9040 -118.8050 264° West 334 384 11,300 2,160 Climbing FlightAware
07:41PM 33.8970 -118.8960 265° West 342 394 13,500 2,820 Climbing FlightAware
07:42PM 33.8980 -118.9790 271° West 348 400 15,600 2,700 Climbing FlightAware
07:42PM 33.9210 -119.0290 299° West 364 419 16,900 2,460 Climbing FlightAware
07:43PM 33.9780 -119.1020 313° West 370 426 18,900 2,460 Climbing FlightAware
07:44PM 34.0330 -119.1730 313° West 373 429 20,800 2,400 Climbing FlightAware
07:44PM 34.0750 -119.2270 313° West 376 433 22,100 2,040 Climbing FlightAware
07:45PM 34.1360 -119.3060 313° West 382 440 23,700 1,920 Climbing FlightAware
07:46PM 34.1840 -119.3690 313° West 384 442 25,000 1,800 Climbing FlightAware
07:46PM 34.2260 -119.4220 314° West 388 447 26,000 1,620 Climbing FlightAware
07:47PM 34.2890 -119.5050 313° West 394 453 27,300 1,020 Climbing FlightAware
07:48PM 34.3330 -119.5630 313° West 395 455 27,600 1,500 Climbing FlightAware
07:49PM 34.3840 -119.6290 313° West 399 459 29,300 1,260 Climbing FlightAware
07:49PM 34.4360 -119.7000 312° West 399 459 29,400 1,260 Climbing FlightAware
07:50PM 34.4870 -119.7640 314° West 406 467 31,000 2,160 Climbing FlightAware
07:51PM 34.5510 -119.8500 312° West 399 459 32,500 1,560 Climbing FlightAware
07:51PM 34.6000 -119.9150 312° West 397 457 33,400 1,020 Climbing FlightAware
07:52PM 34.6530 -119.9880 311° West 397 457 34,000 420 Climbing FlightAware
07:53PM 34.6920 -120.0420 311° West 397 457 34,000  Level FlightAware
07:53PM 34.7330 -120.1000 311° West 397 457 34,000  Level FlightAware
07:54PM 34.8110 -120.2010 313° West 405 466 34,000  Level FlightAware
07:55PM 34.8570 -120.2640 312° West 406 467 34,000  Level FlightAware
07:56PM 34.8990 -120.3230 311° West 406 467 34,000  Level FlightAware
07:56PM 34.9410 -120.3820 311° West 406 467 34,000  Level FlightAware
07:57PM 34.9830 -120.4400 311° West 406 467 34,000 1,020 Level FlightAware
07:58PM 35.0780 -120.5630 313° West 417 480 35,600 1,380 Climbing FlightAware
07:58PM 35.1290 -120.6320 312° West 421 484 36,100 240 Climbing FlightAware
07:59PM 35.1890 -120.7150 312° West 425 489 36,000 -60 Descending FlightAware
08:00PM 35.2530 -120.8040 311° West 426 490 36,000  Level FlightAware
08:01PM 35.3120 -120.8840 312° West 432 497 36,000  Level FlightAware
08:02PM 35.3740 -120.9690 312° West 432 497 36,000  Level FlightAware
08:02PM 35.4140 -121.0250 311° West 433 498 36,000  Level FlightAware
08:03PM 35.4800 -121.1160 312° West 435 501 36,000  Level FlightAware
08:04PM 35.5400 -121.1990 312° West 436 502 36,000  Level FlightAware
08:04PM 35.5920 -121.2720 311° West 436 502 36,000  Level FlightAware
08:05PM 35.6540 -121.3580 312° West 437 503 36,000  Level FlightAware
08:06PM 35.7080 -121.4340 311° West 440 506 36,000  Level FlightAware
08:06PM 35.7610 -121.5080 311° West 441 507 36,000  Level FlightAware
08:07PM 35.8240 -121.5950 312° West 443 510 36,000  Level FlightAware
08:08PM 35.8730 -121.6650 311° West 445 512 36,000  Level FlightAware
08:09PM 35.9380 -121.7560 311° West 447 514 36,000  Level FlightAware
08:09PM 35.9880 -121.8330 309° West 445 512 36,000  Level FlightAware
08:10PM 36.0280 -121.9100 303° West 444 511 36,000  Level FlightAware
08:11PM 36.0650 -121.9830 302° West 444 511 36,000  Level FlightAware
08:11PM 36.1020 -122.0570 302° West 444 511 36,000  Level FlightAware
08:12PM 36.1250 -122.2280 280° West 443 510 36,000  Level FlightAware
08:13PM 36.1570 -122.3220 293° West 442 509 36,000  Level FlightAware
08:13PM 36.1860 -122.4120 292° West 443 510 36,000  Level FlightAware
08:14PM 36.2150 -122.5000 292° West 442 509 36,000  Level FlightAware
08:15PM 36.2570 -122.6290 292° West 443 510 36,000  Level FlightAware
08:16PM 36.2850 -122.7160 292° West 443 510 36,000  Level FlightAware
08:16PM 36.3180 -122.8170 292° West 443 510 36,000  Level FlightAware
08:17PM 36.3440 -122.8970 292° West 443 510 36,000  Level FlightAware
08:18PM 36.3700 -122.9770 292° West 443 510 36,000  Level FlightAware
08:18PM 36.3960 -123.0570 292° West 443 510 36,000  Level FlightAware
08:19PM 36.4220 -123.1380 292° West 443 510 36,000  Level FlightAware
08:20PM 36.4550 -123.2380 292° West 443 510 36,000  Level FlightAware
08:21PM 36.4810 -123.3180 292° West 443 510 36,000  Level FlightAware
08:21PM 36.5070 -123.3990 292° West 443 510 36,000  Level FlightAware
08:22PM 36.5330 -123.4790 292° West 443 510 36,000  Level FlightAware
08:23PM 36.5590 -123.5590 292° West 443 510 36,000  Level FlightAware
08:23PM 36.5920 -123.6600 292° West 443 510 36,000  Level FlightAware
08:24PM 36.6180 -123.7410 292° West 443 510 36,000  Level FlightAware
08:25PM 36.6440 -123.8210 292° West 443 510 36,000  Level FlightAware
08:26PM 36.7489 -124.1742 288° West 445 512 36,000  Level Oakland Center
08:28PM 36.8392 -124.4664 291° West 452 520 36,000  Level Oakland Center
08:29PM 36.8839 -124.6142 291° West 454 522 36,000  Level Oakland Center
08:30PM 36.9275 -124.7614 290° West 452 520 36,000  Level Oakland Center
08:31PM 36.9728 -124.9103 291° West 456 525 36,000  Level Oakland Center
08:32PM 36.9253 -124.7739 288° West  Level FlightAware Approximate
08:32PM 36.9858 -125.0675 276° West 464 534 36,000  Level Oakland Center
08:33PM 36.9350 -125.2517 251° West 468 539 36,000  Level Oakland Center
08:34PM 36.8933 -125.4050 251° West 467 537 36,000  Level Oakland Center
08:35PM 36.8506 -125.5569 251° West 466 536 36,000  Level Oakland Center
08:36PM 36.8083 -125.7114 251° West 469 540 36,000  Level Oakland Center
08:37PM 36.7664 -125.8642 251° West 468 539 36,000  Level Oakland Center
08:38PM 36.7244 -126.0172 251° West 468 539 36,000  Level Oakland Center
08:39PM 36.6811 -126.1694 250° West 468 539 36,000  Level Oakland Center
08:40PM 36.6378 -126.3211 250° West 467 537 36,000  Level Oakland Center
08:41PM 36.5947 -126.4736 251° West 467 537 36,000  Level Oakland Center
08:42PM 36.5547 -126.6269 252° West 467 537 36,000  Level Oakland Center
08:43PM 36.5131 -126.7789 251° West 466 536 36,000  Level Oakland Center
08:45PM 36.4423 -126.9436 250° West  Level FlightAware Approximate
08:48PM 36.4667 -126.9333 250° West 452 520 36,000  Level Oakland Oceanic (ODAPS)
08:52PM 36.1521 -127.9425 250° West  Level FlightAware Approximate
08:53PM 36.1099 -128.0846 250° West  Level FlightAware Approximate
08:54PM 36.0312 -128.3943 249° West 452 520 36,000  Level FlightAware Transoceanic
08:55PM 35.9867 -128.5395 249° West 452 520 36,000  Level FlightAware Transoceanic
08:56PM 35.9420 -128.6846 249° West 452 520 36,000  Level FlightAware Transoceanic
08:57PM 35.8971 -128.8294 249° West 452 520 36,000  Level FlightAware Transoceanic
08:58PM 35.8521 -128.9742 249° West 452 520 36,000  Level FlightAware Transoceanic
08:59PM 35.8069 -129.1187 249° West 452 520 36,000  Level FlightAware Transoceanic
09:00PM 35.7615 -129.2631 249° West 452 520 36,000  Level FlightAware Transoceanic
09:01PM 35.7160 -129.4073 249° West 452 520 36,000  Level FlightAware Transoceanic
09:02PM 35.6702 -129.5513 249° West 452 520 36,000  Level FlightAware Transoceanic
09:03PM 35.6243 -129.6952 249° West 452 520 36,000  Level FlightAware Transoceanic
09:04PM 35.5783 -129.8389 248° West 452 520 36,000  Level FlightAware Transoceanic
09:05PM 35.5320 -129.9825 248° West 452 520 36,000  Level FlightAware Transoceanic
09:06PM 35.4856 -130.1259 248° West 452 520 36,000  Level FlightAware Transoceanic
09:07PM 35.4390 -130.2691 248° West 452 520 36,000  Level FlightAware Transoceanic
09:08PM 35.3923 -130.4122 248° West 452 520 36,000  Level FlightAware Transoceanic
09:09PM 35.3454 -130.5551 248° West 452 520 36,000  Level FlightAware Transoceanic
09:10PM 35.2983 -130.6978 248° West 452 520 36,000  Level FlightAware Transoceanic
09:11PM 35.2510 -130.8403 248° West 452 520 36,000  Level FlightAware Transoceanic
09:12PM 35.2036 -130.9827 248° West 452 520 36,000  Level FlightAware Transoceanic
09:13PM 35.1560 -131.1249 248° West 452 520 36,000  Level FlightAware Transoceanic
09:14PM 35.1082 -131.2670 248° West 452 520 36,000  Level FlightAware Transoceanic
09:15PM 35.0603 -131.4089 248° West 452 520 36,000  Level FlightAware Transoceanic
09:16PM 35.0122 -131.5506 247° West 452 520 36,000  Level FlightAware Transoceanic
09:17PM 34.9640 -131.6922 247° West 452 520 36,000  Level FlightAware Transoceanic
09:18PM 34.9156 -131.8336 247° West 452 520 36,000  Level FlightAware Transoceanic
09:19PM 34.8670 -131.9748 247° West 452 520 36,000  Level FlightAware Transoceanic
09:20PM 34.8183 -132.1158 247° West 452 520 36,000  Level FlightAware Transoceanic
09:21PM 34.7694 -132.2567 247° West 452 520 36,000  Level FlightAware Transoceanic
09:22PM 34.7203 -132.3974 247° West 452 520 36,000  Level FlightAware Transoceanic
09:23PM 34.6711 -132.5380 247° West 452 520 36,000  Level FlightAware Transoceanic
09:24PM 34.6217 -132.6784 247° West 452 520 36,000  Level FlightAware Transoceanic
09:25PM 34.5722 -132.8186 247° West 452 520 36,000  Level FlightAware Transoceanic
09:26PM 34.5224 -132.9587 247° West 452 520 36,000  Level FlightAware Transoceanic
09:27PM 34.4726 -133.0986 247° West 452 520 36,000  Level FlightAware Transoceanic
09:28PM 34.4226 -133.2383 246° West 452 520 36,000  Level FlightAware Transoceanic
09:29PM 34.3724 -133.3778 246° West 452 520 36,000  Level FlightAware Transoceanic
09:30PM 34.3220 -133.5172 246° West 452 520 36,000  Level FlightAware Transoceanic
09:31PM 34.2715 -133.6564 246° West 452 520 36,000  Level FlightAware Transoceanic
09:32PM 34.2209 -133.7955 246° West 452 520 36,000  Level FlightAware Transoceanic
09:33PM 34.1701 -133.9344 246° West 452 520 36,000  Level FlightAware Transoceanic
09:34PM 34.1191 -134.0731 246° West 452 520 36,000  Level FlightAware Transoceanic
09:35PM 34.0680 -134.2116 246° West 452 520 36,000  Level FlightAware Transoceanic
09:36PM 34.0167 -134.3500 246° West 452 520 36,000  Level FlightAware Transoceanic
09:37PM 33.9659 -134.4875 246° West 452 520 36,000  Level FlightAware Transoceanic
09:38PM 33.9149 -134.6248 246° West 452 520 36,000  Level FlightAware Transoceanic
09:39PM 33.8638 -134.7620 246° West 452 520 36,000  Level FlightAware Transoceanic
09:40PM 33.8126 -134.8990 246° West 452 520 36,000  Level FlightAware Transoceanic
09:41PM 33.7612 -135.0358 246° West 452 520 36,000 1,740 Level FlightAware Transoceanic
09:41PM 34.0167 -134.3500 246° West 426 490 38,000  Climbing Oakland Oceanic (ODAPS)
09:42PM 33.7096 -135.1725 246° West 452 520 36,000 -1,080 Descending FlightAware Transoceanic
09:43PM 33.6579 -135.3090 245° Southwest 452 520 36,000  Level FlightAware Transoceanic
09:44PM 33.6061 -135.4454 245° Southwest 452 520 36,000  Level FlightAware Transoceanic
09:45PM 33.5541 -135.5815 245° Southwest 452 520 36,000  Level FlightAware Transoceanic
09:46PM 33.5019 -135.7176 245° Southwest 452 520 36,000 960 Level FlightAware Transoceanic
09:47PM 33.5304 -135.6434 245° Southwest 426 490 38,000 960 Climbing FlightAware Transoceanic
09:48PM 33.4810 -135.7719 245° Southwest 426 490 38,000  Level FlightAware Transoceanic
09:49PM 33.4315 -135.9003 245° Southwest 426 490 38,000  Level FlightAware Transoceanic
09:50PM 33.3819 -136.0285 245° Southwest 426 490 38,000  Level FlightAware Transoceanic
09:51PM 33.3321 -136.1566 245° Southwest 426 490 38,000  Level FlightAware Transoceanic
09:52PM 33.2822 -136.2846 245° Southwest 426 490 38,000  Level FlightAware Transoceanic
09:53PM 33.2322 -136.4124 245° Southwest 426 490 38,000  Level FlightAware Transoceanic
09:54PM 33.1820 -136.5400 245° Southwest 426 490 38,000  Level FlightAware Transoceanic
09:55PM 33.1318 -136.6675 245° Southwest 426 490 38,000  Level FlightAware Transoceanic
09:56PM 33.0813 -136.7949 245° Southwest 426 490 38,000  Level FlightAware Transoceanic
09:57PM 33.0308 -136.9221 245° Southwest 426 490 38,000  Level FlightAware Transoceanic
09:58PM 32.9801 -137.0492 245° Southwest 426 490 38,000  Level FlightAware Transoceanic
09:59PM 32.9293 -137.1761 244° Southwest 426 490 38,000  Level FlightAware Transoceanic
10:00PM 32.8784 -137.3029 244° Southwest 426 490 38,000  Level FlightAware Transoceanic
10:01PM 32.8273 -137.4295 244° Southwest 426 490 38,000  Level FlightAware Transoceanic
10:02PM 32.7761 -137.5560 244° Southwest 426 490 38,000  Level FlightAware Transoceanic
10:03PM 32.7248 -137.6823 244° Southwest 426 490 38,000  Level FlightAware Transoceanic
10:04PM 32.6734 -137.8085 244° Southwest 426 490 38,000  Level FlightAware Transoceanic
10:05PM 32.6218 -137.9346 244° Southwest 426 490 38,000  Level FlightAware Transoceanic
10:06PM 32.5701 -138.0605 244° Southwest 426 490 38,000  Level FlightAware Transoceanic
10:07PM 32.5183 -138.1862 244° Southwest 426 490 38,000  Level FlightAware Transoceanic
10:08PM 32.4664 -138.3118 244° Southwest 426 490 38,000  Level FlightAware Transoceanic
10:09PM 32.4143 -138.4373 244° Southwest 426 490 38,000  Level FlightAware Transoceanic
10:10PM 32.3621 -138.5626 244° Southwest 426 490 38,000  Level FlightAware Transoceanic
10:11PM 32.3098 -138.6878 244° Southwest 426 490 38,000  Level FlightAware Transoceanic
10:12PM 32.2574 -138.8128 244° Southwest 426 490 38,000  Level FlightAware Transoceanic
10:13PM 32.2048 -138.9377 244° Southwest 426 490 38,000  Level FlightAware Transoceanic
10:14PM 32.1521 -139.0625 243° Southwest 426 490 38,000  Level FlightAware Transoceanic
10:15PM 32.0993 -139.1871 243° Southwest 426 490 38,000  Level FlightAware Transoceanic
10:16PM 32.0464 -139.3115 243° Southwest 426 490 38,000  Level FlightAware Transoceanic
10:17PM 31.9934 -139.4358 243° Southwest 426 490 38,000  Level FlightAware Transoceanic
10:18PM 31.9402 -139.5600 243° Southwest 426 490 38,000  Level FlightAware Transoceanic
10:19PM 31.8869 -139.6840 243° Southwest 426 490 38,000  Level FlightAware Transoceanic
10:20PM 31.8335 -139.8079 243° Southwest 426 490 38,000  Level FlightAware Transoceanic
10:21PM 31.7800 -139.9317 243° Southwest 426 490 38,000  Level FlightAware Transoceanic
10:22PM 31.7263 -140.0552 243° Southwest 426 490 38,000  Level FlightAware Transoceanic
10:23PM 31.6726 -140.1787 243° Southwest 426 490 38,000  Level FlightAware Transoceanic
10:24PM 31.6187 -140.3020 243° Southwest 426 490 38,000  Level FlightAware Transoceanic
10:25PM 31.5646 -140.4252 243° Southwest 426 490 38,000  Level FlightAware Transoceanic
10:26PM 31.5105 -140.5482 243° Southwest 426 490 38,000  Level FlightAware Transoceanic
10:27PM 31.4563 -140.6711 243° Southwest 426 490 38,000  Level FlightAware Transoceanic
10:28PM 31.4019 -140.7938 243° Southwest 426 490 38,000  Level FlightAware Transoceanic
10:29PM 31.3475 -140.9164 242° Southwest 426 490 38,000  Level FlightAware Transoceanic
10:30PM 31.2929 -141.0388 242° Southwest 426 490 38,000  Level FlightAware Transoceanic
10:31PM 31.2382 -141.1612 242° Southwest 426 490 38,000  Level FlightAware Transoceanic
10:32PM 31.1833 -141.2833 242° Southwest 426 490 38,000  Level FlightAware Transoceanic
10:33PM 31.1234 -141.4160 242° Southwest 426 490 38,000  Level FlightAware Transoceanic
10:34PM 31.0634 -141.5485 242° Southwest 426 490 38,000  Level FlightAware Transoceanic
10:34PM 31.1833 -141.2833 242° Southwest 453 521 38,000  Level Oakland Oceanic (ODAPS)
10:35PM 31.0033 -141.6809 242° Southwest 426 490 38,000  Level FlightAware Transoceanic
10:36PM 30.9430 -141.8131 242° Southwest 426 490 38,000  Level FlightAware Transoceanic
10:37PM 30.8826 -141.9451 242° Southwest 426 490 38,000  Level FlightAware Transoceanic
10:38PM 30.8220 -142.0769 242° Southwest 426 490 38,000  Level FlightAware Transoceanic
10:39PM 30.7613 -142.2086 242° Southwest 426 490 38,000  Level FlightAware Transoceanic
10:40PM 30.7005 -142.3401 242° Southwest 426 490 38,000  Level FlightAware Transoceanic
10:41PM 30.6499 -142.4492 242° Southwest 453 521 38,000  Level FlightAware Transoceanic
10:42PM 30.5900 -142.5779 242° Southwest 453 521 38,000  Level FlightAware Transoceanic
10:43PM 30.5299 -142.7065 241° Southwest 453 521 38,000  Level FlightAware Transoceanic
10:44PM 30.4698 -142.8349 241° Southwest 453 521 38,000  Level FlightAware Transoceanic
10:45PM 30.4095 -142.9632 241° Southwest 453 521 38,000  Level FlightAware Transoceanic
10:46PM 30.3491 -143.0913 241° Southwest 453 521 38,000  Level FlightAware Transoceanic
10:47PM 30.2885 -143.2193 241° Southwest 453 521 38,000  Level FlightAware Transoceanic
10:48PM 30.2279 -143.3470 241° Southwest 453 521 38,000  Level FlightAware Transoceanic
10:49PM 30.1671 -143.4747 241° Southwest 453 521 38,000  Level FlightAware Transoceanic
10:50PM 30.1062 -143.6021 241° Southwest 453 521 38,000  Level FlightAware Transoceanic
10:51PM 30.0451 -143.7295 241° Southwest 453 521 38,000  Level FlightAware Transoceanic
10:52PM 29.9840 -143.8566 241° Southwest 453 521 38,000  Level FlightAware Transoceanic
10:53PM 29.9227 -143.9836 241° Southwest 453 521 38,000  Level FlightAware Transoceanic
10:54PM 29.8613 -144.1105 241° Southwest 453 521 38,000  Level FlightAware Transoceanic
10:55PM 29.7998 -144.2372 241° Southwest 453 521 38,000  Level FlightAware Transoceanic
10:56PM 29.7381 -144.3637 241° Southwest 453 521 38,000  Level FlightAware Transoceanic
10:57PM 29.6764 -144.4901 241° Southwest 453 521 38,000  Level FlightAware Transoceanic
10:58PM 29.6145 -144.6163 241° Southwest 453 521 38,000  Level FlightAware Transoceanic
10:59PM 29.5525 -144.7424 240° Southwest 453 521 38,000  Level FlightAware Transoceanic
11:00PM 29.4904 -144.8683 240° Southwest 453 521 38,000  Level FlightAware Transoceanic
11:01PM 29.4281 -144.9940 240° Southwest 453 521 38,000  Level FlightAware Transoceanic
11:02PM 29.3658 -145.1196 240° Southwest 453 521 38,000  Level FlightAware Transoceanic
11:03PM 29.3033 -145.2451 240° Southwest 453 521 38,000  Level FlightAware Transoceanic
11:04PM 29.2407 -145.3704 240° Southwest 453 521 38,000  Level FlightAware Transoceanic
11:05PM 29.1780 -145.4955 240° Southwest 453 521 38,000  Level FlightAware Transoceanic
11:06PM 29.1152 -145.6205 240° Southwest 453 521 38,000  Level FlightAware Transoceanic
11:07PM 29.0522 -145.7453 240° Southwest 453 521 38,000  Level FlightAware Transoceanic
11:08PM 28.9892 -145.8700 240° Southwest 453 521 38,000  Level FlightAware Transoceanic
11:09PM 28.9260 -145.9946 240° Southwest 453 521 38,000  Level FlightAware Transoceanic
11:10PM 28.8627 -146.1190 240° Southwest 453 521 38,000  Level FlightAware Transoceanic
11:11PM 28.7993 -146.2432 240° Southwest 453 521 38,000  Level FlightAware Transoceanic
11:12PM 28.7358 -146.3673 240° Southwest 453 521 38,000  Level FlightAware Transoceanic
11:13PM 28.6722 -146.4912 240° Southwest 453 521 38,000  Level FlightAware Transoceanic
11:14PM 28.6084 -146.6150 240° Southwest 453 521 38,000  Level FlightAware Transoceanic
11:15PM 28.5446 -146.7386 240° Southwest 453 521 38,000  Level FlightAware Transoceanic
11:16PM 28.4806 -146.8621 239° Southwest 453 521 38,000  Level FlightAware Transoceanic
11:17PM 28.4165 -146.9854 239° Southwest 453 521 38,000  Level FlightAware Transoceanic
11:18PM 28.3524 -147.1086 239° Southwest 453 521 38,000  Level FlightAware Transoceanic
11:19PM 28.2881 -147.2316 239° Southwest 453 521 38,000  Level FlightAware Transoceanic
11:20PM 28.2237 -147.3545 239° Southwest 453 521 38,000  Level FlightAware Transoceanic
11:21PM 28.1591 -147.4772 239° Southwest 453 521 38,000  Level FlightAware Transoceanic
11:22PM 28.0945 -147.5998 239° Southwest 453 521 38,000  Level FlightAware Transoceanic
11:23PM 28.0298 -147.7222 239° Southwest 453 521 38,000  Level FlightAware Transoceanic
11:24PM 27.9650 -147.8445 239° Southwest 453 521 38,000  Level FlightAware Transoceanic
11:25PM 27.9000 -147.9667 239° Southwest 453 521 38,000  Level FlightAware Transoceanic
11:26PM 27.8308 -148.0962 239° Southwest 453 521 38,000  Level FlightAware Transoceanic
11:27PM 27.7614 -148.2256 239° Southwest 453 521 38,000  Level FlightAware Transoceanic
11:28PM 27.6919 -148.3548 239° Southwest 453 521 38,000  Level FlightAware Transoceanic
11:29PM 27.6223 -148.4839 239° Southwest 453 521 38,000  Level FlightAware Transoceanic
11:29PM 27.9000 -147.9667 239° Southwest 454 522 38,000  Level Oakland Oceanic (ODAPS)
11:30PM 27.5526 -148.6128 239° Southwest 453 521 38,000  Level FlightAware Transoceanic
11:31PM 27.4828 -148.7415 239° Southwest 453 521 38,000  Level FlightAware Transoceanic
11:32PM 27.4128 -148.8701 238° Southwest 453 521 38,000  Level FlightAware Transoceanic
11:33PM 27.3428 -148.9984 238° Southwest 453 521 38,000  Level FlightAware Transoceanic
11:34PM 27.2726 -149.1267 238° Southwest 453 521 38,000  Level FlightAware Transoceanic
11:35PM 27.2421 -149.1823 238° Southwest 454 522 38,000  Level FlightAware Transoceanic
11:36PM 27.1757 -149.3031 238° Southwest 454 522 38,000  Level FlightAware Transoceanic
11:37PM 27.1092 -149.4237 238° Southwest 454 522 38,000  Level FlightAware Transoceanic
11:38PM 27.0427 -149.5441 238° Southwest 454 522 38,000  Level FlightAware Transoceanic
11:39PM 26.9760 -149.6645 238° Southwest 454 522 38,000  Level FlightAware Transoceanic
11:40PM 26.9092 -149.7847 238° Southwest 454 522 38,000  Level FlightAware Transoceanic
11:41PM 26.8423 -149.9047 238° Southwest 454 522 38,000  Level FlightAware Transoceanic
11:42PM 26.7754 -150.0246 238° Southwest 454 522 38,000  Level FlightAware Transoceanic
11:43PM 26.7083 -150.1444 238° Southwest 454 522 38,000  Level FlightAware Transoceanic
11:44PM 26.6411 -150.2640 238° Southwest 454 522 38,000  Level FlightAware Transoceanic
11:45PM 26.5738 -150.3835 238° Southwest 454 522 38,000  Level FlightAware Transoceanic
11:46PM 26.5064 -150.5029 238° Southwest 454 522 38,000  Level FlightAware Transoceanic
11:47PM 26.4389 -150.6221 238° Southwest 454 522 38,000  Level FlightAware Transoceanic
11:48PM 26.3714 -150.7411 238° Southwest 454 522 38,000  Level FlightAware Transoceanic
11:49PM 26.3037 -150.8600 238° Southwest 454 522 38,000  Level FlightAware Transoceanic
11:50PM 26.2359 -150.9788 238° Southwest 454 522 38,000  Level FlightAware Transoceanic
11:51PM 26.1680 -151.0975 237° Southwest 454 522 38,000  Level FlightAware Transoceanic
11:52PM 26.1001 -151.2160 237° Southwest 454 522 38,000  Level FlightAware Transoceanic
11:53PM 26.0320 -151.3344 237° Southwest 454 522 38,000  Level FlightAware Transoceanic
11:54PM 25.9638 -151.4526 237° Southwest 454 522 38,000  Level FlightAware Transoceanic
11:55PM 25.8956 -151.5707 237° Southwest 454 522 38,000  Level FlightAware Transoceanic
11:56PM 25.8272 -151.6886 237° Southwest 454 522 38,000  Level FlightAware Transoceanic
11:57PM 25.7588 -151.8065 237° Southwest 454 522 38,000  Level FlightAware Transoceanic
11:58PM 25.6902 -151.9242 237° Southwest 454 522 38,000  Level FlightAware Transoceanic
11:59PM 25.6216 -152.0417 237° Southwest 454 522 38,000  Level FlightAware Transoceanic
12:00AM 25.5528 -152.1591 237° Southwest 454 522 38,000  Level FlightAware Transoceanic
12:01AM 25.4840 -152.2764 237° Southwest 454 522 38,000  Level FlightAware Transoceanic
12:02AM 25.4151 -152.3936 237° Southwest 454 522 38,000  Level FlightAware Transoceanic
12:03AM 25.3461 -152.5106 237° Southwest 454 522 38,000  Level FlightAware Transoceanic
12:04AM 25.2770 -152.6275 237° Southwest 454 522 38,000  Level FlightAware Transoceanic
12:05AM 25.2078 -152.7442 237° Southwest 454 522 38,000  Level FlightAware Transoceanic
12:06AM 25.1385 -152.8608 237° Southwest 454 522 38,000  Level FlightAware Transoceanic
12:07AM 25.0691 -152.9773 237° Southwest 454 522 38,000  Level FlightAware Transoceanic
12:08AM 24.9996 -153.0937 237° Southwest 454 522 38,000  Level FlightAware Transoceanic
12:09AM 24.9301 -153.2099 237° Southwest 454 522 38,000  Level FlightAware Transoceanic
12:10AM 24.8604 -153.3260 236° Southwest 454 522 38,000  Level FlightAware Transoceanic
12:11AM 24.7907 -153.4419 236° Southwest 454 522 38,000  Level FlightAware Transoceanic
12:12AM 24.7208 -153.5578 236° Southwest 454 522 38,000  Level FlightAware Transoceanic
12:13AM 24.6509 -153.6734 236° Southwest 454 522 38,000  Level FlightAware Transoceanic
12:14AM 24.5809 -153.7890 236° Southwest 454 522 38,000  Level FlightAware Transoceanic
12:15AM 24.5108 -153.9045 236° Southwest 454 522 38,000  Level FlightAware Transoceanic
12:16AM 24.4406 -154.0198 236° Southwest 454 522 38,000  Level FlightAware Transoceanic
12:17AM 24.3704 -154.1349 236° Southwest 454 522 38,000  Level FlightAware Transoceanic
12:18AM 24.3000 -154.2500 236° Southwest 454 522 38,000  Level FlightAware Transoceanic
12:19AM 24.2238 -154.3740 236° Southwest 454 522 38,000 -1,440 Level FlightAware Transoceanic
12:19AM 24.2167 -154.3667 236° Southwest 470 541 36,000  Descending Honolulu Center
12:20AM 24.1475 -154.4978 236° Southwest 454 522 38,000  Climbing FlightAware Transoceanic
12:20AM 24.1500 -154.4833 238° Southwest 460 529 36,000  Descending Honolulu Center
12:21AM 24.0710 -154.6215 236° Southwest 454 522 38,000  Climbing FlightAware Transoceanic
12:21AM 24.0667 -154.6000 232° Southwest 460 529 36,000  Descending Honolulu Center
12:22AM 23.9945 -154.7451 236° Southwest 454 522 38,000  Climbing FlightAware Transoceanic
12:22AM 23.9833 -154.7000 228° Southwest 480 552 36,000  Descending Honolulu Center
12:23AM 23.9179 -154.8685 236° Southwest 454 522 38,000  Climbing FlightAware Transoceanic
12:23AM 23.9000 -154.8000 228° Southwest 470 541 36,000  Descending Honolulu Center
12:24AM 23.8412 -154.9917 236° Southwest 454 522 38,000  Climbing FlightAware Transoceanic
12:24AM 23.8000 -154.9000 222° Southwest 460 529 36,000 -1,380 Descending Honolulu Center
12:25AM 23.7167 -155.0000 228° Southwest 470 541 36,000  Level Honolulu Center
12:26AM 23.6167 -155.1000 223° Southwest 460 529 36,000  Level Honolulu Center
12:27AM 23.5333 -155.2000 228° Southwest 460 529 36,000  Level Honolulu Center
12:29AM 23.3333 -155.4000 223° Southwest 470 541 36,000  Level Honolulu Center
12:30AM 23.2500 -155.5000 228° Southwest 470 541 36,000  Level Honolulu Center
12:31AM 23.1667 -155.6000 228° Southwest 470 541 36,000  Level Honolulu Center
12:32AM 23.0667 -155.7000 223° Southwest 470 541 36,000 960 Level Honolulu Center
12:33AM 23.0000 -155.7833 229° Southwest 470 541 38,000 960 Climbing Honolulu Center
12:34AM 22.8833 -155.9000 223° Southwest 470 541 38,000  Level Honolulu Center
12:35AM 22.8000 -156.0000 228° Southwest 470 541 38,000  Level Honolulu Center
12:36AM 22.7000 -156.1167 227° Southwest 470 541 38,000  Level Honolulu Center
12:37AM 22.6167 -156.2167 228° Southwest 470 541 38,000  Level Honolulu Center
12:38AM 22.5167 -156.3167 223° Southwest 470 541 38,000 -720 Level Honolulu Center
12:39AM 22.4167 -156.4167 223° Southwest 470 541 36,600 -2,100 Descending Honolulu Center
12:40AM 22.3333 -156.5167 228° Southwest 470 541 33,900 -2,880 Descending Honolulu Center
12:41AM 22.2333 -156.6167 223° Southwest 480 552 30,800 -2,700 Descending Honolulu Center
12:42AM 22.1500 -156.7167 228° Southwest 470 541 28,500 -2,400 Descending Honolulu Center
12:43AM 22.0500 -156.8167 223° Southwest 450 518 26,100 -2,280 Descending Honolulu Center
12:44AM 21.9667 -156.9000 223° Southwest 440 506 24,000 -2,160 Descending Honolulu Center
12:45AM 21.8833 -157.0000 228° Southwest 420 483 21,800 -2,280 Descending Honolulu Center
12:46AM 21.8167 -157.0667 223° Southwest 420 483 19,500 -2,280 Descending Honolulu Center
12:47AM 21.7167 -157.1667 223° Southwest 400 460 17,300 -2,160 Descending Honolulu Center
12:48AM 21.6500 -157.2500 229° Southwest 390 449 15,200 -2,220 Descending Honolulu Center
12:49AM 21.5667 -157.3333 223° Southwest 380 437 12,900 -2,220 Descending Honolulu Center
12:50AM 21.5000 -157.4167 229° Southwest 360 414 10,800 -1,440 Descending Honolulu Center
12:51AM 21.4500 -157.5000 237° Southwest 330 380 10,100 -420 Descending Honolulu Center
12:52AM 21.4000 -157.5667 231° Southwest 310 357 10,000 -360 Descending Honolulu Center
12:53AM 21.3667 -157.6500 247° West 280 322 9,400 -1,020 Descending Honolulu Center
12:54AM 21.3167 -157.7167 231° Southwest 280 322 8,000 -720 Descending Honolulu Center
12:55AM 21.2833 -157.7833 242° Southwest 230 265 8,000  Level Honolulu Center